createdAt,value
2023-03-11T00:00:49.683Z,79.73
2023-03-11T00:03:18.932Z,79.54
2023-03-11T00:05:47.328Z,79.82
2023-03-11T00:08:21.381Z,80.20
2023-03-11T00:10:58.951Z,80.04
2023-03-11T00:13:30.253Z,80.19
2023-03-11T00:15:59.799Z,80.33
2023-03-11T00:18:39.475Z,80.33
2023-03-11T00:21:15.229Z,80.41
2023-03-11T00:23:43.470Z,80.36
2023-03-11T00:26:12.314Z,80.64
2023-03-11T00:28:41.144Z,80.43
2023-03-11T00:31:13.518Z,80.53
2023-03-11T00:33:54.194Z,80.65
2023-03-11T00:36:33.917Z,80.78
2023-03-11T00:39:06.589Z,80.69
2023-03-11T00:41:39.804Z,81.06
2023-03-11T00:44:08.418Z,80.80
2023-03-11T00:46:36.642Z,80.82
2023-03-11T00:49:04.987Z,81.07
2023-03-11T00:51:34.318Z,81.11
2023-03-11T00:54:05.531Z,81.08
2023-03-11T00:56:34.313Z,81.23
2023-03-11T00:59:05.262Z,81.20
2023-03-11T01:01:33.737Z,81.55
2023-03-11T01:04:02.809Z,81.42
2023-03-11T01:06:44.868Z,81.41
2023-03-11T01:09:13.729Z,81.68
2023-03-11T01:11:45.029Z,81.59
2023-03-11T01:14:13.637Z,81.72
2023-03-11T01:16:41.803Z,81.95
2023-03-11T01:19:11.176Z,81.89
2023-03-11T01:21:39.701Z,81.96
2023-03-11T01:24:09.317Z,82.01
2023-03-11T01:26:42.417Z,82.20
2023-03-11T01:29:10.877Z,82.06
2023-03-11T01:31:39.448Z,82.03
2023-03-11T01:34:07.678Z,82.21
2023-03-11T01:36:41.490Z,82.21
2023-03-11T01:39:10.264Z,82.21
2023-03-11T01:41:39.073Z,82.44
2023-03-11T01:44:08.025Z,82.50
2023-03-11T01:46:54.138Z,82.56
2023-03-11T01:49:25.708Z,82.77
2023-03-11T01:51:56.644Z,82.78
2023-03-11T01:54:30.267Z,82.83
2023-03-11T01:56:58.658Z,82.84
2023-03-11T01:59:33.557Z,83.00
2023-03-11T02:02:41.660Z,83.19
2023-03-11T02:05:10.540Z,83.07
2023-03-11T02:07:40.423Z,83.20
2023-03-11T02:10:12.329Z,83.13
2023-03-11T02:12:41.306Z,83.12
2023-03-11T02:15:10.185Z,83.03
2023-03-11T02:17:43.370Z,83.22
2023-03-11T02:20:23.046Z,83.37
2023-03-11T02:22:52.997Z,83.17
2023-03-11T02:25:31.409Z,83.29
2023-03-11T02:28:00.078Z,83.20
2023-03-11T02:30:30.291Z,83.25
2023-03-11T02:32:59.055Z,83.31
2023-03-11T02:35:27.481Z,83.35
2023-03-11T02:37:57.364Z,83.10
2023-03-11T02:40:34.260Z,83.10
2023-03-11T02:43:08.443Z,83.22
2023-03-11T02:45:36.885Z,83.24
2023-03-11T02:48:05.796Z,83.23
2023-03-11T02:50:36.718Z,83.25
2023-03-11T02:53:05.751Z,83.36
2023-03-11T02:55:34.482Z,83.27
2023-03-11T02:58:02.737Z,83.22
2023-03-11T03:00:32.404Z,83.32
2023-03-11T03:03:04.778Z,83.44
2023-03-11T03:05:33.327Z,83.34
2023-03-11T03:08:03.108Z,83.38
2023-03-11T03:10:31.400Z,83.23
2023-03-11T03:13:03.152Z,83.07
2023-03-11T03:15:31.453Z,83.28
2023-03-11T03:18:03.258Z,83.26
2023-03-11T03:20:34.220Z,83.35
2023-03-11T03:23:04.144Z,83.45
2023-03-11T03:25:33.230Z,83.61
2023-03-11T03:28:05.084Z,83.57
2023-03-11T03:30:35.523Z,83.65
2023-03-11T03:33:04.063Z,83.65
2023-03-11T03:35:33.931Z,83.69
2023-03-11T03:38:14.332Z,83.87
2023-03-11T03:40:47.999Z,84.06
2023-03-11T03:43:18.139Z,83.85
2023-03-11T03:46:04.641Z,83.86
2023-03-11T03:48:38.867Z,83.90
2023-03-11T03:51:11.097Z,83.93
2023-03-11T03:53:43.348Z,83.81
2023-03-11T03:56:17.945Z,83.88
2023-03-11T03:58:50.090Z,84.11
2023-03-11T04:01:18.542Z,84.16
2023-03-11T04:03:47.302Z,83.98
2023-03-11T04:06:23.061Z,83.90
2023-03-11T04:08:55.377Z,84.04
2023-03-11T04:11:27.917Z,83.94
2023-03-11T04:13:57.735Z,84.14
2023-03-11T04:16:26.436Z,84.26
2023-03-11T04:19:00.529Z,84.18
2023-03-11T04:21:30.052Z,84.19
2023-03-11T04:24:01.406Z,84.16
2023-03-11T04:26:32.979Z,84.24
2023-03-11T04:29:01.600Z,84.24
2023-03-11T04:31:32.249Z,84.31
2023-03-11T04:34:02.072Z,84.21
2023-03-11T04:36:30.811Z,84.21
2023-03-11T04:38:59.505Z,84.25
2023-03-11T04:41:30.600Z,84.41
2023-03-11T04:44:00.341Z,84.52
2023-03-11T04:46:29.348Z,84.40
2023-03-11T04:48:59.757Z,84.62
2023-03-11T04:51:28.324Z,84.75
2023-03-11T04:53:57.485Z,84.76
2023-03-11T04:56:26.660Z,84.91
2023-03-11T04:59:01.974Z,84.84
2023-03-11T05:01:32.409Z,84.89
2023-03-11T05:04:03.058Z,85.19
2023-03-11T05:06:32.861Z,85.19
2023-03-11T05:09:02.866Z,85.32
2023-03-11T05:11:31.702Z,85.51
2023-03-11T05:14:04.411Z,85.70
2023-03-11T05:16:33.774Z,85.70
2023-03-11T05:19:22.633Z,85.60
2023-03-11T05:21:52.455Z,85.77
2023-03-11T05:24:21.125Z,85.64
2023-03-11T05:26:56.345Z,85.56
2023-03-11T05:29:25.174Z,85.63
2023-03-11T05:31:54.473Z,85.55
2023-03-11T05:34:27.827Z,85.42
2023-03-11T05:36:56.095Z,85.40
2023-03-11T05:39:29.492Z,85.47
2023-03-11T05:41:57.768Z,85.48
2023-03-11T05:44:27.162Z,85.28
2023-03-11T05:46:57.734Z,85.15
2023-03-11T05:49:26.784Z,84.97
2023-03-11T05:51:58.731Z,84.52
2023-03-11T05:54:28.199Z,84.44
2023-03-11T05:56:57.689Z,84.28
2023-03-11T05:59:26.763Z,84.10
2023-03-11T06:01:58.714Z,83.93
2023-03-11T06:04:28.468Z,83.59
2023-03-11T06:06:57.129Z,83.64
2023-03-11T06:09:27.258Z,83.46
2023-03-11T06:11:55.779Z,83.29
2023-03-11T06:14:25.862Z,83.20
2023-03-11T06:16:54.042Z,82.99
2023-03-11T06:19:29.411Z,83.30
2023-03-11T06:21:57.980Z,83.11
2023-03-11T06:24:26.326Z,82.89
2023-03-11T06:26:56.919Z,82.78
2023-03-11T06:29:26.908Z,83.26
2023-03-11T06:31:55.592Z,83.26
2023-03-11T06:34:24.076Z,83.30
2023-03-11T06:36:52.657Z,83.36
2023-03-11T06:39:20.805Z,83.58
2023-03-11T06:41:49.692Z,83.51
2023-03-11T06:44:18.716Z,83.49
2023-03-11T06:46:47.232Z,83.74
2023-03-11T06:49:15.506Z,84.16
2023-03-11T06:51:43.807Z,84.28
2023-03-11T06:54:12.400Z,84.29
2023-03-11T06:56:41.424Z,84.75
2023-03-11T06:59:10.826Z,84.82
2023-03-11T07:01:39.012Z,84.85
2023-03-11T07:04:09.808Z,84.45
2023-03-11T07:06:39.352Z,84.71
2023-03-11T07:09:15.565Z,84.65
2023-03-11T07:11:46.945Z,84.57
2023-03-11T07:14:19.147Z,84.77
2023-03-11T07:16:49.896Z,84.78
2023-03-11T07:19:40.463Z,84.44
2023-03-11T07:22:09.068Z,84.53
2023-03-11T07:24:37.491Z,84.48
2023-03-11T07:27:06.395Z,84.63
2023-03-11T07:29:34.570Z,84.50
2023-03-11T07:32:03.733Z,84.54
2023-03-11T07:34:33.126Z,84.56
2023-03-11T07:37:04.923Z,84.83
2023-03-11T07:39:34.183Z,84.79
2023-03-11T07:42:04.732Z,84.67
2023-03-11T07:44:39.144Z,84.72
2023-03-11T07:47:07.627Z,84.56
2023-03-11T07:49:41.560Z,84.63
2023-03-11T07:52:09.775Z,84.70
2023-03-11T07:54:38.040Z,85.10
2023-03-11T07:57:07.516Z,84.88
2023-03-11T07:59:40.368Z,85.13
2023-03-11T08:02:12.079Z,85.17
2023-03-11T08:04:40.703Z,85.36
2023-03-11T08:07:08.974Z,85.41
2023-03-11T08:09:37.144Z,85.46
2023-03-11T08:12:05.909Z,85.77
2023-03-11T08:14:34.150Z,85.68
2023-03-11T08:17:07.803Z,86.00
2023-03-11T08:19:38.127Z,86.10
2023-03-11T08:22:06.671Z,86.05
2023-03-11T08:24:36.285Z,86.09
2023-03-11T08:27:04.718Z,86.06
2023-03-11T08:29:33.129Z,85.97
2023-03-11T08:32:02.888Z,86.04
2023-03-11T08:34:33.179Z,86.27
2023-03-11T08:37:01.829Z,86.40
2023-03-11T08:39:30.461Z,86.18
2023-03-11T08:41:59.964Z,86.31
2023-03-11T08:44:29.396Z,86.58
2023-03-11T08:46:57.846Z,86.63
2023-03-11T08:49:26.298Z,86.93
2023-03-11T08:51:54.608Z,87.24
2023-03-11T08:54:26.307Z,87.59
2023-03-11T08:56:54.985Z,87.75
2023-03-11T08:59:23.302Z,87.74
2023-03-11T09:01:51.851Z,88.33
2023-03-11T09:04:20.082Z,88.05
2023-03-11T09:06:50.841Z,88.34
2023-03-11T09:09:21.312Z,88.43
2023-03-11T09:11:49.559Z,88.68
2023-03-11T09:14:19.062Z,88.71
2023-03-11T09:16:47.252Z,88.93
2023-03-11T09:19:15.458Z,88.99
2023-03-11T09:21:43.680Z,89.18
2023-03-11T09:24:13.426Z,89.02
2023-03-11T09:26:46.034Z,89.50
2023-03-11T09:29:14.679Z,89.25
2023-03-11T09:31:43.069Z,89.55
2023-03-11T09:34:14.497Z,89.45
2023-03-11T09:36:45.444Z,89.84
2023-03-11T09:39:14.036Z,89.71
2023-03-11T09:42:11.180Z,90.25
2023-03-11T09:44:57.992Z,90.11
2023-03-11T09:48:05.953Z,90.50
2023-03-11T09:50:40.728Z,90.86
2023-03-11T09:53:34.271Z,90.98
2023-03-11T09:56:05.571Z,91.07
2023-03-11T09:58:53.222Z,91.58
2023-03-11T10:01:24.879Z,91.87
2023-03-11T10:03:56.046Z,91.95
2023-03-11T10:06:26.152Z,92.28
2023-03-11T10:09:37.584Z,92.50
2023-03-11T10:12:28.023Z,92.77
2023-03-11T10:14:57.261Z,93.35
2023-03-11T10:17:50.484Z,93.56
2023-03-11T10:20:35.071Z,93.77
2023-03-11T10:23:29.762Z,94.17
2023-03-11T10:26:10.280Z,94.44
2023-03-11T10:29:10.715Z,94.48
2023-03-11T10:32:27.474Z,95.04
2023-03-11T10:35:19.192Z,95.00
2023-03-11T10:37:59.038Z,95.21
2023-03-11T10:40:36.201Z,95.31
2023-03-11T10:43:11.034Z,95.48
2023-03-11T10:45:45.991Z,95.63
2023-03-11T10:48:16.054Z,95.49
2023-03-11T10:50:50.886Z,96.01
2023-03-11T10:53:20.276Z,96.07
2023-03-11T10:55:53.412Z,96.37
2023-03-11T10:58:32.479Z,96.46
2023-03-11T11:01:02.265Z,96.71
2023-03-11T11:03:31.327Z,96.73
2023-03-11T11:06:02.069Z,96.68
2023-03-11T11:08:30.674Z,97.16
2023-03-11T11:11:01.687Z,97.26
2023-03-11T11:13:32.549Z,97.50
2023-03-11T11:16:18.941Z,97.65
2023-03-11T11:19:00.483Z,97.79
2023-03-11T11:21:49.331Z,98.13
2023-03-11T11:24:27.206Z,98.21
2023-03-11T11:27:15.722Z,98.09
2023-03-11T11:29:44.068Z,98.45
2023-03-11T11:32:17.312Z,98.64
2023-03-11T11:34:54.585Z,98.66
2023-03-11T11:37:23.797Z,99.02
2023-03-11T11:39:56.931Z,99.05
2023-03-11T11:42:26.299Z,99.46
2023-03-11T11:45:01.236Z,99.55
2023-03-11T11:47:36.100Z,99.74
2023-03-11T11:50:07.526Z,99.94
2023-03-11T11:52:45.060Z,99.94
2023-03-11T11:55:25.856Z,100.00
2023-03-11T11:57:54.918Z,100.00
2023-03-11T12:00:29.952Z,100.00
2023-03-11T12:03:39.185Z,100.00
2023-03-11T12:06:37.178Z,100.00
2023-03-11T12:09:24.530Z,100.00
2023-03-11T12:12:19.159Z,100.00
2023-03-11T12:14:53.797Z,100.00
2023-03-11T12:17:23.647Z,100.00
2023-03-11T12:20:00.521Z,100.00
2023-03-11T12:22:45.126Z,100.00
2023-03-11T12:25:37.069Z,100.00
2023-03-11T12:28:26.702Z,100.00
2023-03-11T12:30:56.841Z,100.00
2023-03-11T12:33:33.266Z,100.00
2023-03-11T12:36:02.099Z,100.00
2023-03-11T12:38:32.976Z,100.00
2023-03-11T12:41:17.025Z,100.00
2023-03-11T12:43:47.484Z,100.00
2023-03-11T12:46:19.303Z,100.00
2023-03-11T12:48:52.517Z,100.00
2023-03-11T12:51:26.873Z,100.00
2023-03-11T12:53:55.802Z,100.00
2023-03-11T12:56:34.840Z,100.00
2023-03-11T12:59:09.095Z,100.00
2023-03-11T13:01:46.054Z,100.00
2023-03-11T13:04:14.383Z,100.00
2023-03-11T13:06:46.164Z,100.00
2023-03-11T13:09:16.328Z,100.00
2023-03-11T13:11:48.190Z,100.00
2023-03-11T13:14:16.610Z,100.00
2023-03-11T13:16:45.912Z,100.00
2023-03-11T13:19:26.482Z,100.00
2023-03-11T13:21:55.295Z,100.00
2023-03-11T13:24:26.202Z,100.00
2023-03-11T13:27:02.241Z,100.00
2023-03-11T13:30:00.478Z,100.00
2023-03-11T13:32:49.680Z,100.00
2023-03-11T13:35:45.496Z,100.00
2023-03-11T13:38:26.812Z,100.00
2023-03-11T13:40:55.030Z,100.00
2023-03-11T13:43:24.938Z,100.00
2023-03-11T13:46:16.112Z,100.00
2023-03-11T13:48:45.682Z,100.00
2023-03-11T13:51:20.040Z,100.00
2023-03-11T13:53:52.201Z,100.00
2023-03-11T13:56:32.391Z,100.00
2023-03-11T13:59:23.061Z,100.00
2023-03-11T14:01:57.176Z,100.00
2023-03-11T14:04:28.590Z,100.00
2023-03-11T14:06:57.807Z,100.00
2023-03-11T14:09:32.145Z,100.00
2023-03-11T14:12:07.907Z,100.00
2023-03-11T14:14:54.692Z,100.00
2023-03-11T14:17:27.655Z,100.00
2023-03-11T14:20:31.989Z,100.00
2023-03-11T14:23:00.799Z,100.00
2023-03-11T14:25:31.266Z,100.00
2023-03-11T14:28:02.231Z,100.00
2023-03-11T14:30:34.086Z,100.00
2023-03-11T14:33:06.085Z,100.00
2023-03-11T14:35:34.914Z,100.00
2023-03-11T14:38:05.058Z,100.00
2023-03-11T14:40:37.759Z,100.00
2023-03-11T14:43:07.158Z,100.00
2023-03-11T14:45:37.626Z,100.00
2023-03-11T14:48:18.232Z,100.00
2023-03-11T14:50:49.492Z,100.00
2023-03-11T14:53:18.322Z,100.00
2023-03-11T14:55:56.056Z,100.00
2023-03-11T14:58:29.233Z,100.00
2023-03-11T15:01:01.162Z,100.00
2023-03-11T15:03:33.894Z,100.00
2023-03-11T15:06:06.667Z,100.00
2023-03-11T15:08:36.699Z,100.00
2023-03-11T15:11:14.665Z,100.00
2023-03-11T15:13:47.384Z,100.00
2023-03-11T15:16:35.414Z,100.00
2023-03-11T15:19:26.015Z,100.00
2023-03-11T15:21:56.689Z,100.00
2023-03-11T15:24:28.145Z,100.00
2023-03-11T15:27:09.398Z,100.00
2023-03-11T15:29:40.049Z,100.00
2023-03-11T15:32:40.122Z,100.00
2023-03-11T15:35:08.355Z,100.00
2023-03-11T15:37:37.354Z,100.00
2023-03-11T15:40:13.499Z,100.00
2023-03-11T15:42:42.032Z,100.00
2023-03-11T15:45:18.724Z,100.00
2023-03-11T15:47:48.745Z,100.00
2023-03-11T15:50:24.955Z,100.00
2023-03-11T15:52:57.181Z,100.00
2023-03-11T15:55:26.585Z,100.00
2023-03-11T15:58:02.777Z,100.00
2023-03-11T16:00:31.442Z,100.00
2023-03-11T16:03:00.762Z,100.00
2023-03-11T16:05:34.367Z,100.00
2023-03-11T16:08:03.712Z,100.00
2023-03-11T16:10:33.319Z,100.00
2023-03-11T16:13:13.535Z,100.00
2023-03-11T16:15:47.122Z,100.00
2023-03-11T16:18:16.180Z,100.00
2023-03-11T16:20:46.837Z,100.00
2023-03-11T16:23:28.716Z,100.00
2023-03-11T16:26:02.674Z,100.00
2023-03-11T16:28:36.644Z,100.00
2023-03-11T16:31:05.218Z,100.00
2023-03-11T16:33:34.649Z,100.00
2023-03-11T16:36:03.581Z,100.00
2023-03-11T16:38:35.071Z,100.00
2023-03-11T16:41:03.565Z,100.00
2023-03-11T16:43:31.832Z,100.00
2023-03-11T16:46:01.603Z,100.00
2023-03-11T16:48:32.509Z,100.00
2023-03-11T16:51:02.731Z,100.00
2023-03-11T16:53:31.804Z,100.00
2023-03-11T16:56:01.376Z,100.00
2023-03-11T16:58:30.575Z,100.00
2023-03-11T17:01:00.310Z,100.00
2023-03-11T17:03:34.446Z,100.00
2023-03-11T17:06:09.832Z,100.00
2023-03-11T17:08:39.462Z,100.00
2023-03-11T17:11:17.332Z,100.00
2023-03-11T17:13:47.449Z,100.00
2023-03-11T17:16:16.307Z,100.00
2023-03-11T17:18:44.606Z,100.00
2023-03-11T17:21:14.552Z,100.00
2023-03-11T17:23:42.818Z,100.00
2023-03-11T17:26:13.851Z,100.00
2023-03-11T17:28:43.412Z,100.00
2023-03-11T17:31:15.743Z,100.00
2023-03-11T17:33:44.658Z,100.00
2023-03-11T17:36:16.544Z,100.00
2023-03-11T17:38:46.557Z,100.00
2023-03-11T17:41:16.256Z,100.00
2023-03-11T17:43:44.814Z,100.00
2023-03-11T17:46:14.975Z,100.00
2023-03-11T17:48:45.450Z,100.00
2023-03-11T17:51:16.615Z,100.00
2023-03-11T17:53:46.089Z,100.00
2023-03-11T17:56:21.579Z,100.00
2023-03-11T17:58:50.107Z,100.00
2023-03-11T18:01:28.281Z,100.00
2023-03-11T18:03:56.850Z,100.00
2023-03-11T18:06:25.219Z,100.00
2023-03-11T18:08:55.166Z,100.00
2023-03-11T18:11:27.252Z,100.00
2023-03-11T18:13:55.973Z,100.00
2023-03-11T18:16:26.369Z,100.00
2023-03-11T18:18:56.663Z,100.00
2023-03-11T18:21:27.487Z,100.00
2023-03-11T18:24:00.416Z,100.00
2023-03-11T18:26:31.305Z,100.00
2023-03-11T18:29:00.114Z,100.00
2023-03-11T18:31:30.559Z,100.00
2023-03-11T18:34:05.160Z,100.00
2023-03-11T18:36:34.870Z,100.00
2023-03-11T18:39:04.905Z,100.00
2023-03-11T18:41:36.039Z,100.00
2023-03-11T18:44:09.903Z,100.00
2023-03-11T18:46:42.565Z,100.00
2023-03-11T18:49:12.256Z,100.00
2023-03-11T18:51:41.259Z,100.00
2023-03-11T18:54:10.278Z,100.00
2023-03-11T18:56:38.762Z,100.00
2023-03-11T18:59:08.701Z,100.00
2023-03-11T19:01:36.911Z,100.00
2023-03-11T19:04:05.513Z,100.00
2023-03-11T19:06:33.851Z,100.00
2023-03-11T19:09:04.109Z,100.00
2023-03-11T19:11:34.781Z,100.00
2023-03-11T19:14:04.604Z,100.00
2023-03-11T19:16:32.979Z,100.00
2023-03-11T19:19:05.435Z,100.00
2023-03-11T19:21:35.602Z,100.00
2023-03-11T19:24:05.685Z,100.00
2023-03-11T19:26:44.825Z,100.00
2023-03-11T19:29:14.408Z,100.00
2023-03-11T19:31:46.318Z,100.00
2023-03-11T19:34:14.637Z,100.00
2023-03-11T19:36:42.780Z,100.00
2023-03-11T19:39:11.439Z,100.00
2023-03-11T19:41:40.395Z,100.00
2023-03-11T19:44:12.749Z,100.00
2023-03-11T19:46:42.825Z,100.00
2023-03-11T19:49:11.998Z,100.00
2023-03-11T19:51:49.519Z,100.00
2023-03-11T19:54:19.474Z,100.00
2023-03-11T19:56:50.478Z,100.00
2023-03-11T19:59:19.129Z,100.00
2023-03-11T20:01:47.434Z,100.00
2023-03-11T20:04:16.636Z,100.00
2023-03-11T20:07:11.137Z,100.00
2023-03-11T20:09:44.036Z,100.00
2023-03-11T20:12:13.920Z,100.00
2023-03-11T20:15:09.209Z,100.00
2023-03-11T20:17:41.236Z,100.00
2023-03-11T20:20:12.488Z,100.00
2023-03-11T20:22:40.828Z,100.00
2023-03-11T20:25:09.588Z,100.00
2023-03-11T20:27:39.284Z,100.00
2023-03-11T20:30:08.545Z,100.00
2023-03-11T20:32:38.688Z,100.00
2023-03-11T20:35:07.611Z,100.00
2023-03-11T20:37:35.793Z,100.00
2023-03-11T20:40:06.627Z,100.00
2023-03-11T20:42:36.324Z,100.00
2023-03-11T20:45:08.866Z,100.00
2023-03-11T20:47:44.584Z,100.00
2023-03-11T20:50:14.493Z,100.00
2023-03-11T20:52:42.984Z,100.00
2023-03-11T20:55:11.646Z,100.00
2023-03-11T20:57:40.073Z,100.00
2023-03-11T21:00:11.683Z,100.00
2023-03-11T21:02:42.114Z,100.00
2023-03-11T21:05:11.296Z,100.00
2023-03-11T21:07:43.157Z,100.00
2023-03-11T21:10:12.536Z,100.00
2023-03-11T21:12:42.930Z,100.00
2023-03-11T21:15:11.780Z,100.00
2023-03-11T21:17:41.836Z,100.00
2023-03-11T21:20:11.324Z,100.00
2023-03-11T21:22:41.249Z,100.00
2023-03-11T21:25:10.507Z,100.00
2023-03-11T21:27:38.873Z,100.00
2023-03-11T21:30:07.848Z,100.00
2023-03-11T21:32:37.541Z,100.00
2023-03-11T21:35:06.088Z,100.00
2023-03-11T21:37:35.953Z,100.00
2023-03-11T21:40:07.568Z,100.00
2023-03-11T21:42:36.005Z,100.00
2023-03-11T21:45:04.614Z,100.00
2023-03-11T21:47:33.015Z,100.00
2023-03-11T21:50:01.734Z,100.00
2023-03-11T21:52:30.410Z,100.00
2023-03-11T21:55:00.530Z,100.00
2023-03-11T21:57:28.959Z,100.00
2023-03-11T21:59:57.190Z,100.00
2023-03-11T22:02:26.728Z,100.00
2023-03-11T22:04:55.457Z,100.00
2023-03-11T22:07:23.912Z,100.00
2023-03-11T22:09:53.772Z,100.00
2023-03-11T22:12:24.218Z,100.00
2023-03-11T22:14:52.449Z,100.00
2023-03-11T22:17:20.744Z,100.00
2023-03-11T22:19:49.066Z,100.00
2023-03-11T22:22:17.492Z,100.00
2023-03-11T22:24:45.780Z,100.00
2023-03-11T22:27:14.021Z,100.00
2023-03-11T22:29:44.333Z,100.00
2023-03-11T22:32:18.611Z,100.00
2023-03-11T22:34:46.828Z,100.00
2023-03-11T22:37:15.002Z,100.00
2023-03-11T22:39:44.054Z,100.00
2023-03-11T22:42:14.160Z,100.00
2023-03-11T22:44:42.472Z,100.00
2023-03-11T22:47:11.758Z,100.00
2023-03-11T22:49:40.099Z,100.00
2023-03-11T22:52:08.490Z,100.00
2023-03-11T22:54:37.602Z,100.00
2023-03-11T22:57:08.020Z,100.00
2023-03-11T22:59:37.043Z,100.00
2023-03-11T23:02:05.282Z,100.00
2023-03-11T23:04:35.007Z,100.00
2023-03-11T23:07:03.249Z,100.00
2023-03-11T23:09:32.193Z,100.00
2023-03-11T23:12:03.937Z,100.00
2023-03-11T23:14:44.193Z,100.00
2023-03-11T23:17:18.614Z,100.00
2023-03-11T23:19:47.723Z,100.00
2023-03-11T23:22:15.980Z,100.00
2023-03-11T23:24:45.667Z,100.00
2023-03-11T23:27:13.930Z,100.00
2023-03-11T23:29:44.287Z,99.93
2023-03-11T23:32:18.762Z,99.89
2023-03-11T23:34:47.659Z,99.78
2023-03-11T23:37:15.861Z,99.58
2023-03-11T23:39:46.312Z,99.39
2023-03-11T23:42:25.043Z,99.33
2023-03-11T23:44:57.696Z,99.08
2023-03-11T23:47:26.710Z,99.02
2023-03-11T23:49:55.238Z,98.96
2023-03-11T23:52:23.702Z,98.84
2023-03-11T23:54:51.854Z,98.75
2023-03-11T23:57:20.129Z,98.58
2023-03-11T23:59:48.492Z,98.65
